sensor_id;sensor_type;location;lat;lon;timestamp;pressure;altitude;pressure_sealevel;temperature;humidity
59043;BME280;44826;51.596;5.624;2023-03-19T00:02:01;100978.44;;;10.17;85.07
59043;BME280;44826;51.596;5.624;2023-03-19T00:04:26;100986.25;;;10.17;85.09
59043;BME280;44826;51.596;5.624;2023-03-19T00:06:52;100974.97;;;10.17;84.97
59043;BME280;44826;51.596;5.624;2023-03-19T00:09:18;100982.75;;;10.18;84.95
59043;BME280;44826;51.596;5.624;2023-03-19T00:11:44;100986.25;;;10.17;85.27
59043;BME280;44826;51.596;5.624;2023-03-19T00:14:09;100985.38;;;10.17;85.06
59043;BME280;44826;51.596;5.624;2023-03-19T00:16:35;100981.94;;;10.16;85.22
59043;BME280;44826;51.596;5.624;2023-03-19T00:19:01;100986.31;;;10.16;85.85
59043;BME280;44826;51.596;5.624;2023-03-19T00:21:26;100984.59;;;10.13;85.58
59043;BME280;44826;51.596;5.624;2023-03-19T00:23:52;100990.72;;;10.11;85.68
59043;BME280;44826;51.596;5.624;2023-03-19T00:26:18;100981.22;;;10.08;86.10
59043;BME280;44826;51.596;5.624;2023-03-19T00:28:43;100985.63;;;10.06;86.37
59043;BME280;44826;51.596;5.624;2023-03-19T00:31:13;100990.00;;;10.04;86.56
59043;BME280;44826;51.596;5.624;2023-03-19T00:33:39;100991.78;;;10.02;87.06
59043;BME280;44826;51.596;5.624;2023-03-19T00:36:05;100989.25;;;9.99;87.10
59043;BME280;44826;51.596;5.624;2023-03-19T00:38:32;100997.03;;;9.99;86.80
59043;BME280;44826;51.596;5.624;2023-03-19T00:40:58;100997.03;;;9.99;87.06
59043;BME280;44826;51.596;5.624;2023-03-19T00:43:24;100995.28;;;10.01;87.08
59043;BME280;44826;51.596;5.624;2023-03-19T00:45:49;100994.38;;;10.02;87.05
59043;BME280;44826;51.596;5.624;2023-03-19T00:48:16;100999.59;;;10.02;87.28
59043;BME280;44826;51.596;5.624;2023-03-19T00:50:41;100993.50;;;10.03;87.25
59043;BME280;44826;51.596;5.624;2023-03-19T00:53:07;101003.88;;;10.03;87.30
59043;BME280;44826;51.596;5.624;2023-03-19T00:55:32;101001.28;;;10.03;87.24
59043;BME280;44826;51.596;5.624;2023-03-19T00:57:57;100995.28;;;10.01;87.11
59043;BME280;44826;51.596;5.624;2023-03-19T01:00:22;100992.66;;;10.01;87.19
59043;BME280;44826;51.596;5.624;2023-03-19T01:02:48;100992.66;;;10.01;87.24
59043;BME280;44826;51.596;5.624;2023-03-19T01:05:13;100996.19;;;9.98;87.31
59043;BME280;44826;51.596;5.624;2023-03-19T01:07:39;100997.97;;;9.96;87.86
59043;BME280;44826;51.596;5.624;2023-03-19T01:10:04;101008.38;;;9.96;87.70
59043;BME280;44826;51.596;5.624;2023-03-19T01:12:30;101004.06;;;9.94;87.94
59043;BME280;44826;51.596;5.624;2023-03-19T01:14:55;101007.56;;;9.93;88.06
59043;BME280;44826;51.596;5.624;2023-03-19T01:17:21;101000.63;;;9.92;87.93
59043;BME280;44826;51.596;5.624;2023-03-19T01:19:47;101007.63;;;9.90;87.98
59043;BME280;44826;51.596;5.624;2023-03-19T01:22:13;101004.22;;;9.87;87.88
59043;BME280;44826;51.596;5.624;2023-03-19T01:24:40;100999.06;;;9.84;87.92
59043;BME280;44826;51.596;5.624;2023-03-19T01:27:05;100997.34;;;9.83;87.77
59043;BME280;44826;51.596;5.624;2023-03-19T01:29:30;100998.28;;;9.81;87.72
59043;BME280;44826;51.596;5.624;2023-03-19T01:31:56;100995.69;;;9.79;87.90
59043;BME280;44826;51.596;5.624;2023-03-19T01:34:21;100994.00;;;9.78;87.86
59043;BME280;44826;51.596;5.624;2023-03-19T01:36:47;100988.78;;;9.78;88.23
59043;BME280;44826;51.596;5.624;2023-03-19T01:39:13;100987.06;;;9.77;88.18
59043;BME280;44826;51.596;5.624;2023-03-19T01:41:38;100985.38;;;9.76;88.37
59043;BME280;44826;51.596;5.624;2023-03-19T01:44:32;100993.16;;;9.76;87.95
59043;BME280;44826;51.596;5.624;2023-03-19T01:47:00;100983.66;;;9.75;88.25
59043;BME280;44826;51.596;5.624;2023-03-19T01:49:27;100985.38;;;9.76;88.44
59043;BME280;44826;51.596;5.624;2023-03-19T01:51:54;100982.75;;;9.76;88.37
59043;BME280;44826;51.596;5.624;2023-03-19T01:54:21;100984.53;;;9.76;88.68
59043;BME280;44826;51.596;5.624;2023-03-19T01:56:57;100993.16;;;9.76;88.70
59043;BME280;44826;51.596;5.624;2023-03-19T01:59:30;100979.31;;;9.76;88.66
59043;BME280;44826;51.596;5.624;2023-03-19T02:02:00;100989.72;;;9.74;89.02
59043;BME280;44826;51.596;5.624;2023-03-19T02:04:28;100990.56;;;9.76;88.80
59043;BME280;44826;51.596;5.624;2023-03-19T02:06:55;100991.44;;;9.77;88.72
59043;BME280;44826;51.596;5.624;2023-03-19T02:09:23;100993.16;;;9.76;88.96
59043;BME280;44826;51.596;5.624;2023-03-19T02:11:49;100989.72;;;9.76;89.03
59043;BME280;44826;51.596;5.624;2023-03-19T02:14:15;100990.56;;;9.76;89.22
59043;BME280;44826;51.596;5.624;2023-03-19T02:16:40;100988.00;;;9.75;89.52
59043;BME280;44826;51.596;5.624;2023-03-19T02:19:08;100986.25;;;9.75;89.50
59043;BME280;44826;51.596;5.624;2023-03-19T02:21:37;100990.56;;;9.76;89.35
59043;BME280;44826;51.596;5.624;2023-03-19T02:24:11;100983.66;;;9.75;89.59
59043;BME280;44826;51.596;5.624;2023-03-19T02:26:39;100992.28;;;9.77;89.16
59043;BME280;44826;51.596;5.624;2023-03-19T02:29:05;100994.88;;;9.77;88.90
59043;BME280;44826;51.596;5.624;2023-03-19T02:31:31;100998.34;;;9.78;89.65
59043;BME280;44826;51.596;5.624;2023-03-19T02:34:06;100990.56;;;9.76;89.80
59043;BME280;44826;51.596;5.624;2023-03-19T02:36:34;101000.94;;;9.76;89.84
59043;BME280;44826;51.596;5.624;2023-03-19T02:39:03;100994.03;;;9.75;89.75
59043;BME280;44826;51.596;5.624;2023-03-19T02:41:30;100993.19;;;9.75;89.95
59043;BME280;44826;51.596;5.624;2023-03-19T02:43:57;100992.31;;;9.74;90.27
59043;BME280;44826;51.596;5.624;2023-03-19T02:46:22;100987.13;;;9.74;90.29
59043;BME280;44826;51.596;5.624;2023-03-19T02:48:47;100994.09;;;9.74;90.45
59043;BME280;44826;51.596;5.624;2023-03-19T02:51:13;101004.47;;;9.74;90.32
59043;BME280;44826;51.596;5.624;2023-03-19T02:53:38;101001.03;;;9.73;90.33
59043;BME280;44826;51.596;5.624;2023-03-19T02:56:04;101006.22;;;9.73;90.88
59043;BME280;44826;51.596;5.624;2023-03-19T02:58:29;101005.31;;;9.74;90.42
59043;BME280;44826;51.596;5.624;2023-03-19T03:00:54;101006.19;;;9.75;90.33
59043;BME280;44826;51.596;5.624;2023-03-19T03:03:19;100999.22;;;9.75;90.14
59043;BME280;44826;51.596;5.624;2023-03-19T03:05:45;101004.38;;;9.78;90.16
59043;BME280;44826;51.596;5.624;2023-03-19T03:08:11;101006.09;;;9.79;90.25
59043;BME280;44826;51.596;5.624;2023-03-19T03:10:36;101006.97;;;9.80;90.10
59043;BME280;44826;51.596;5.624;2023-03-19T03:13:01;101009.53;;;9.81;89.96
59043;BME280;44826;51.596;5.624;2023-03-19T03:15:27;101005.19;;;9.82;90.31
59043;BME280;44826;51.596;5.624;2023-03-19T03:17:52;101006.88;;;9.83;90.10
59043;BME280;44826;51.596;5.624;2023-03-19T03:20:18;101011.22;;;9.82;90.36
59043;BME280;44826;51.596;5.624;2023-03-19T03:22:44;101011.22;;;9.82;90.08
59043;BME280;44826;51.596;5.624;2023-03-19T03:25:10;101011.22;;;9.82;89.99
59043;BME280;44826;51.596;5.624;2023-03-19T03:27:37;101018.16;;;9.83;90.14
59043;BME280;44826;51.596;5.624;2023-03-19T03:30:06;101019.00;;;9.84;90.22
59043;BME280;44826;51.596;5.624;2023-03-19T03:32:33;101012.94;;;9.83;90.24
59043;BME280;44826;51.596;5.624;2023-03-19T03:34:58;101012.94;;;9.83;90.51
59043;BME280;44826;51.596;5.624;2023-03-19T03:37:23;101011.22;;;9.82;90.23
59043;BME280;44826;51.596;5.624;2023-03-19T03:39:48;101013.00;;;9.82;90.22
59043;BME280;44826;51.596;5.624;2023-03-19T03:42:14;101009.53;;;9.81;90.09
59043;BME280;44826;51.596;5.624;2023-03-19T03:44:39;101010.34;;;9.83;90.22
59043;BME280;44826;51.596;5.624;2023-03-19T03:47:05;101010.41;;;9.82;90.13
59043;BME280;44826;51.596;5.624;2023-03-19T03:49:30;101007.81;;;9.80;90.30
59043;BME280;44826;51.596;5.624;2023-03-19T03:51:56;101010.44;;;9.79;89.94
59043;BME280;44826;51.596;5.624;2023-03-19T03:54:21;101007.84;;;9.77;90.31
59043;BME280;44826;51.596;5.624;2023-03-19T03:56:46;101023.50;;;9.76;90.42
59043;BME280;44826;51.596;5.624;2023-03-19T03:59:14;101027.84;;;9.74;90.67
59043;BME280;44826;51.596;5.624;2023-03-19T04:01:40;101025.31;;;9.72;90.62
59043;BME280;44826;51.596;5.624;2023-03-19T04:04:05;101035.75;;;9.69;90.68
59043;BME280;44826;51.596;5.624;2023-03-19T04:06:31;101028.88;;;9.65;90.68
59043;BME280;44826;51.596;5.624;2023-03-19T04:08:56;101034.13;;;9.62;90.63
59043;BME280;44826;51.596;5.624;2023-03-19T04:11:21;101040.25;;;9.59;90.79
59043;BME280;44826;51.596;5.624;2023-03-19T04:13:47;101037.75;;;9.53;90.84
59043;BME280;44826;51.596;5.624;2023-03-19T04:16:12;101030.06;;;9.48;90.81
59043;BME280;44826;51.596;5.624;2023-03-19T04:18:39;101030.19;;;9.40;91.05
59043;BME280;44826;51.596;5.624;2023-03-19T04:21:05;101024.22;;;9.37;91.35
59043;BME280;44826;51.596;5.624;2023-03-19T04:23:31;101024.25;;;9.34;91.24
59043;BME280;44826;51.596;5.624;2023-03-19T04:25:58;101025.16;;;9.31;91.61
59043;BME280;44826;51.596;5.624;2023-03-19T04:28:24;101027.84;;;9.26;91.31
59043;BME280;44826;51.596;5.624;2023-03-19T04:30:49;101033.06;;;9.23;91.37
59043;BME280;44826;51.596;5.624;2023-03-19T04:33:15;101040.09;;;9.18;91.44
59043;BME280;44826;51.596;5.624;2023-03-19T04:35:41;101038.44;;;9.14;91.31
59043;BME280;44826;51.596;5.624;2023-03-19T04:38:06;101037.63;;;9.10;91.41
59043;BME280;44826;51.596;5.624;2023-03-19T04:40:33;101042.03;;;9.05;91.30
59043;BME280;44826;51.596;5.624;2023-03-19T04:42:58;101036.94;;;9.01;91.50
59043;BME280;44826;51.596;5.624;2023-03-19T04:45:23;101040.41;;;8.98;91.48
59043;BME280;44826;51.596;5.624;2023-03-19T04:47:48;101035.31;;;8.93;91.77
59043;BME280;44826;51.596;5.624;2023-03-19T04:50:14;101035.34;;;8.90;91.69
59043;BME280;44826;51.596;5.624;2023-03-19T04:52:39;101040.59;;;8.87;91.78
59043;BME280;44826;51.596;5.624;2023-03-19T04:55:06;101044.97;;;8.84;92.00
59043;BME280;44826;51.596;5.624;2023-03-19T04:57:32;101045.88;;;8.81;92.01
59043;BME280;44826;51.596;5.624;2023-03-19T04:59:57;101042.44;;;8.79;92.35
59043;BME280;44826;51.596;5.624;2023-03-19T05:02:23;101045.06;;;8.76;92.38
59043;BME280;44826;51.596;5.624;2023-03-19T05:04:48;101051.19;;;8.72;92.02
59043;BME280;44826;51.596;5.624;2023-03-19T05:07:13;101056.44;;;8.69;91.99
59043;BME280;44826;51.596;5.624;2023-03-19T05:09:39;101059.06;;;8.64;92.60
59043;BME280;44826;51.596;5.624;2023-03-19T05:12:05;101068.66;;;8.60;92.14
59043;BME280;44826;51.596;5.624;2023-03-19T05:14:31;101066.13;;;8.56;91.80
59043;BME280;44826;51.596;5.624;2023-03-19T05:16:56;101070.53;;;8.49;91.51
59043;BME280;44826;51.596;5.624;2023-03-19T05:19:22;101075.72;;;8.46;92.49
59043;BME280;44826;51.596;5.624;2023-03-19T05:21:47;101072.31;;;8.42;92.82
59043;BME280;44826;51.596;5.624;2023-03-19T05:24:12;101068.84;;;8.42;92.47
59043;BME280;44826;51.596;5.624;2023-03-19T05:26:37;101072.34;;;8.38;91.68
59043;BME280;44826;51.596;5.624;2023-03-19T05:29:04;101069.00;;;8.32;92.05
59043;BME280;44826;51.596;5.624;2023-03-19T05:31:29;101075.13;;;8.27;91.74
59043;BME280;44826;51.596;5.624;2023-03-19T05:33:55;101080.34;;;8.22;91.84
59043;BME280;44826;51.596;5.624;2023-03-19T05:36:20;101081.19;;;8.21;92.94
59043;BME280;44826;51.596;5.624;2023-03-19T05:38:45;101082.91;;;8.22;93.16
59043;BME280;44826;51.596;5.624;2023-03-19T05:41:11;101084.66;;;8.22;93.64
59043;BME280;44826;51.596;5.624;2023-03-19T05:43:36;101080.34;;;8.24;94.14
59043;BME280;44826;51.596;5.624;2023-03-19T05:46:01;101088.06;;;8.25;94.29
59043;BME280;44826;51.596;5.624;2023-03-19T05:48:27;101086.34;;;8.24;94.38
59043;BME280;44826;51.596;5.624;2023-03-19T05:50:52;101082.03;;;8.26;94.41
59043;BME280;44826;51.596;5.624;2023-03-19T05:53:18;101093.25;;;8.25;94.48
59043;BME280;44826;51.596;5.624;2023-03-19T05:55:43;101097.59;;;8.25;94.42
59043;BME280;44826;51.596;5.624;2023-03-19T05:58:09;101101.94;;;8.23;94.60
59043;BME280;44826;51.596;5.624;2023-03-19T06:00:34;101097.63;;;8.22;94.94
59043;BME280;44826;51.596;5.624;2023-03-19T06:03:00;101101.06;;;8.22;94.96
59043;BME280;44826;51.596;5.624;2023-03-19T06:05:26;101108.84;;;8.22;94.98
59043;BME280;44826;51.596;5.624;2023-03-19T06:07:51;101107.13;;;8.21;95.28
59043;BME280;44826;51.596;5.624;2023-03-19T06:10:16;101099.38;;;8.19;95.20
59043;BME280;44826;51.596;5.624;2023-03-19T06:12:42;101100.22;;;8.20;95.08
59043;BME280;44826;51.596;5.624;2023-03-19T06:15:08;101110.59;;;8.22;95.06
59043;BME280;44826;51.596;5.624;2023-03-19T06:17:33;101103.72;;;8.19;94.97
59043;BME280;44826;51.596;5.624;2023-03-19T06:19:59;101113.25;;;8.17;94.70
59043;BME280;44826;51.596;5.624;2023-03-19T06:22:24;101110.66;;;8.15;94.86
59043;BME280;44826;51.596;5.624;2023-03-19T06:24:50;101121.03;;;8.14;95.63
59043;BME280;44826;51.596;5.624;2023-03-19T06:27:15;101124.50;;;8.13;95.29
59043;BME280;44826;51.596;5.624;2023-03-19T06:29:40;101125.34;;;8.13;95.48
59043;BME280;44826;51.596;5.624;2023-03-19T06:32:06;101126.22;;;8.14;95.61
59043;BME280;44826;51.596;5.624;2023-03-19T06:34:31;101132.25;;;8.16;95.67
59043;BME280;44826;51.596;5.624;2023-03-19T06:36:57;101129.66;;;8.16;95.79
59043;BME280;44826;51.596;5.624;2023-03-19T06:39:22;101132.22;;;8.19;95.76
59043;BME280;44826;51.596;5.624;2023-03-19T06:41:47;101128.72;;;8.20;95.96
59043;BME280;44826;51.596;5.624;2023-03-19T06:44:13;101133.88;;;8.25;95.92
59043;BME280;44826;51.596;5.624;2023-03-19T06:46:38;101134.72;;;8.25;96.23
59043;BME280;44826;51.596;5.624;2023-03-19T06:49:03;101145.09;;;8.27;96.07
59043;BME280;44826;51.596;5.624;2023-03-19T06:51:28;101152.84;;;8.28;96.48
59043;BME280;44826;51.596;5.624;2023-03-19T06:53:54;101145.03;;;8.31;96.59
59043;BME280;44826;51.596;5.624;2023-03-19T06:56:20;101150.19;;;8.34;97.01
59043;BME280;44826;51.596;5.624;2023-03-19T06:58:46;101157.91;;;8.38;96.98
59043;BME280;44826;51.596;5.624;2023-03-19T07:01:11;101154.44;;;8.39;96.93
59043;BME280;44826;51.596;5.624;2023-03-19T07:03:36;101156.16;;;8.41;97.01
59043;BME280;44826;51.596;5.624;2023-03-19T07:06:02;101158.72;;;8.44;96.98
59043;BME280;44826;51.596;5.624;2023-03-19T07:08:27;101157.84;;;8.45;97.32
59043;BME280;44826;51.596;5.624;2023-03-19T07:10:55;101158.69;;;8.49;97.40
59043;BME280;44826;51.596;5.624;2023-03-19T07:13:20;101169.03;;;8.52;97.47
59043;BME280;44826;51.596;5.624;2023-03-19T07:15:46;101168.97;;;8.55;97.39
59043;BME280;44826;51.596;5.624;2023-03-19T07:18:11;101167.22;;;8.57;97.45
59043;BME280;44826;51.596;5.624;2023-03-19T07:20:36;101172.38;;;8.60;97.79
59043;BME280;44826;51.596;5.624;2023-03-19T07:23:02;101170.56;;;8.67;98.18
59043;BME280;44826;51.596;5.624;2023-03-19T07:25:27;101173.09;;;8.73;98.44
59043;BME280;44826;51.596;5.624;2023-03-19T07:27:52;101180.78;;;8.81;98.31
59043;BME280;44826;51.596;5.624;2023-03-19T07:30:18;101179.00;;;8.86;98.20
59043;BME280;44826;51.596;5.624;2023-03-19T07:32:43;101185.78;;;8.93;97.91
59043;BME280;44826;51.596;5.624;2023-03-19T07:35:09;101183.13;;;9.00;97.72
59043;BME280;44826;51.596;5.624;2023-03-19T07:37:35;101188.25;;;9.04;97.45
59043;BME280;44826;51.596;5.624;2023-03-19T07:40:00;101190.78;;;9.09;97.61
59043;BME280;44826;51.596;5.624;2023-03-19T07:42:26;101192.41;;;9.15;96.70
59043;BME280;44826;51.596;5.624;2023-03-19T07:44:51;101193.25;;;9.18;96.02
59043;BME280;44826;51.596;5.624;2023-03-19T07:47:16;101191.44;;;9.25;96.20
59043;BME280;44826;51.596;5.624;2023-03-19T07:49:42;101189.63;;;9.30;96.33
59043;BME280;44826;51.596;5.624;2023-03-19T07:52:08;101189.56;;;9.35;95.98
59043;BME280;44826;51.596;5.624;2023-03-19T07:54:33;101188.63;;;9.39;94.99
59043;BME280;44826;51.596;5.624;2023-03-19T07:56:58;101183.44;;;9.39;95.04
59043;BME280;44826;51.596;5.624;2023-03-19T07:59:24;101195.47;;;9.43;95.23
59043;BME280;44826;51.596;5.624;2023-03-19T08:01:49;101193.72;;;9.45;93.81
59043;BME280;44826;51.596;5.624;2023-03-19T08:04:14;101200.63;;;9.46;93.67
59043;BME280;44826;51.596;5.624;2023-03-19T08:06:40;101195.44;;;9.48;93.46
59043;BME280;44826;51.596;5.624;2023-03-19T08:09:06;101202.31;;;9.50;93.00
59043;BME280;44826;51.596;5.624;2023-03-19T08:11:31;101204.81;;;9.55;92.90
59043;BME280;44826;51.596;5.624;2023-03-19T08:13:56;101201.31;;;9.57;92.45
59043;BME280;44826;51.596;5.624;2023-03-19T08:16:22;101203.88;;;9.61;92.89
59043;BME280;44826;51.596;5.624;2023-03-19T08:18:47;101203.81;;;9.64;92.48
59043;BME280;44826;51.596;5.624;2023-03-19T08:21:12;101205.50;;;9.68;92.54
59043;BME280;44826;51.596;5.624;2023-03-19T08:23:38;101218.38;;;9.74;92.67
59043;BME280;44826;51.596;5.624;2023-03-19T08:26:03;101209.66;;;9.78;91.94
59043;BME280;44826;51.596;5.624;2023-03-19T08:28:29;101215.63;;;9.83;92.48
59043;BME280;44826;51.596;5.624;2023-03-19T08:30:54;101218.09;;;9.91;92.21
59043;BME280;44826;51.596;5.624;2023-03-19T08:33:20;101215.41;;;9.96;91.87
59043;BME280;44826;51.596;5.624;2023-03-19T08:35:46;101218.81;;;10.01;91.37
59043;BME280;44826;51.596;5.624;2023-03-19T08:38:11;101223.97;;;10.02;91.46
59043;BME280;44826;51.596;5.624;2023-03-19T08:40:36;101228.19;;;10.08;91.55
59043;BME280;44826;51.596;5.624;2023-03-19T08:43:01;101224.53;;;10.20;91.52
59043;BME280;44826;51.596;5.624;2023-03-19T08:45:28;101220.81;;;10.33;91.87
59043;BME280;44826;51.596;5.624;2023-03-19T08:47:53;101229.25;;;10.48;90.28
59043;BME280;44826;51.596;5.624;2023-03-19T08:50:19;101223.03;;;10.57;90.02
59043;BME280;44826;51.596;5.624;2023-03-19T08:52:44;101236.88;;;10.59;89.06
59043;BME280;44826;51.596;5.624;2023-03-19T08:55:10;101232.63;;;10.53;87.47
59043;BME280;44826;51.596;5.624;2023-03-19T08:57:35;101239.59;;;10.51;87.52
59043;BME280;44826;51.596;5.624;2023-03-19T09:00:03;101238.69;;;10.52;86.35
59043;BME280;44826;51.596;5.624;2023-03-19T09:02:30;101235.25;;;10.52;86.09
59043;BME280;44826;51.596;5.624;2023-03-19T09:04:55;101235.19;;;10.55;86.19
59043;BME280;44826;51.596;5.624;2023-03-19T09:07:21;101238.59;;;10.58;86.70
59043;BME280;44826;51.596;5.624;2023-03-19T09:09:46;101242.06;;;10.59;85.81
59043;BME280;44826;51.596;5.624;2023-03-19T09:12:14;101243.75;;;10.60;85.85
59043;BME280;44826;51.596;5.624;2023-03-19T09:14:40;101244.53;;;10.67;87.01
59043;BME280;44826;51.596;5.624;2023-03-19T09:17:06;101250.47;;;10.73;86.92
59043;BME280;44826;51.596;5.624;2023-03-19T09:19:32;101258.94;;;10.82;87.12
59043;BME280;44826;51.596;5.624;2023-03-19T09:21:58;101264.94;;;10.87;85.40
59043;BME280;44826;51.596;5.624;2023-03-19T09:24:23;101260.56;;;10.89;84.50
59043;BME280;44826;51.596;5.624;2023-03-19T09:26:48;101265.63;;;10.95;84.22
59043;BME280;44826;51.596;5.624;2023-03-19T09:29:14;101269.88;;;10.99;83.35
59043;BME280;44826;51.596;5.624;2023-03-19T09:31:39;101267.09;;;11.08;82.85
59043;BME280;44826;51.596;5.624;2023-03-19T09:34:06;101272.09;;;11.18;82.74
59043;BME280;44826;51.596;5.624;2023-03-19T09:36:31;101278.91;;;11.25;82.65
59043;BME280;44826;51.596;5.624;2023-03-19T09:38:57;101284.84;;;11.30;82.63
59043;BME280;44826;51.596;5.624;2023-03-19T09:41:36;101280.25;;;11.43;82.88
59043;BME280;44826;51.596;5.624;2023-03-19T09:44:34;101283.53;;;11.51;81.96
59043;BME280;44826;51.596;5.624;2023-03-19T09:49:46;101296.59;;;11.50;80.80
59043;BME280;44826;51.596;5.624;2023-03-19T09:57:43;101302.34;;;11.64;79.47
59043;BME280;44826;51.596;5.624;2023-03-19T10:00:22;101300.72;;;11.60;80.33
59043;BME280;44826;51.596;5.624;2023-03-19T10:11:51;101298.44;;;11.45;80.00
59043;BME280;44826;51.596;5.624;2023-03-19T10:16:47;101296.59;;;11.50;81.57
59043;BME280;44826;51.596;5.624;2023-03-19T10:19:19;101296.47;;;11.54;79.43
59043;BME280;44826;51.596;5.624;2023-03-19T10:21:53;101306.81;;;11.59;78.93
59043;BME280;44826;51.596;5.624;2023-03-19T10:24:28;101304.13;;;11.62;79.13
59043;BME280;44826;51.596;5.624;2023-03-19T10:26:59;101303.16;;;11.66;79.21
59043;BME280;44826;51.596;5.624;2023-03-19T10:29:26;101299.66;;;11.69;78.48
59043;BME280;44826;51.596;5.624;2023-03-19T10:32:13;101302.09;;;11.75;81.08
59043;BME280;44826;51.596;5.624;2023-03-19T10:34:42;101304.56;;;11.81;78.77
59043;BME280;44826;51.596;5.624;2023-03-19T10:39:37;101305.16;;;11.94;79.20
59043;BME280;44826;51.596;5.624;2023-03-19T10:42:30;101304.19;;;11.98;79.29
59043;BME280;44826;51.596;5.624;2023-03-19T10:47:46;101309.97;;;12.11;76.91
59043;BME280;44826;51.596;5.624;2023-03-19T10:50:17;101310.66;;;12.20;77.04
59043;BME280;44826;51.596;5.624;2023-03-19T10:52:44;101311.28;;;12.29;76.43
59043;BME280;44826;51.596;5.624;2023-03-19T10:55:22;101311.03;;;12.39;75.59
59043;BME280;44826;51.596;5.624;2023-03-19T10:57:49;101312.50;;;12.49;77.67
59043;BME280;44826;51.596;5.624;2023-03-19T11:00:23;101318.31;;;12.60;75.72
59043;BME280;44826;51.596;5.624;2023-03-19T11:02:52;101318.03;;;12.70;75.11
59043;BME280;44826;51.596;5.624;2023-03-19T11:05:24;101326.47;;;12.80;74.39
59043;BME280;44826;51.596;5.624;2023-03-19T11:08:15;101330.53;;;12.92;75.70
59043;BME280;44826;51.596;5.624;2023-03-19T11:10:46;101325.13;;;12.98;72.97
59043;BME280;44826;51.596;5.624;2023-03-19T11:13:22;101319.72;;;13.04;73.88
59043;BME280;44826;51.596;5.624;2023-03-19T11:15:47;101319.56;;;13.10;73.13
59043;BME280;44826;51.596;5.624;2023-03-19T11:18:23;101326.28;;;13.17;73.18
59043;BME280;44826;51.596;5.624;2023-03-19T11:20:56;101328.53;;;13.31;72.48
59043;BME280;44826;51.596;5.624;2023-03-19T11:23:26;101335.03;;;13.48;72.00
59043;BME280;44826;51.596;5.624;2023-03-19T11:25:53;101334.66;;;13.60;72.05
59043;BME280;44826;51.596;5.624;2023-03-19T11:28:24;101328.34;;;13.68;73.11
59043;BME280;44826;51.596;5.624;2023-03-19T11:33:53;101333.31;;;13.47;70.61
59043;BME280;44826;51.596;5.624;2023-03-19T11:36:30;101332.66;;;13.40;71.95
59043;BME280;44826;51.596;5.624;2023-03-19T11:44:21;101334.06;;;13.20;73.04
59043;BME280;44826;51.596;5.624;2023-03-19T11:46:59;101336.75;;;13.17;72.81
59043;BME280;44826;51.596;5.624;2023-03-19T11:52:07;101337.69;;;13.15;72.74
59043;BME280;44826;51.596;5.624;2023-03-19T11:57:54;101331.28;;;13.27;73.00
59043;BME280;44826;51.596;5.624;2023-03-19T12:00:35;101331.34;;;13.24;72.69
59043;BME280;44826;51.596;5.624;2023-03-19T12:03:46;101336.44;;;13.28;72.58
59043;BME280;44826;51.596;5.624;2023-03-19T12:07:23;101333.47;;;13.42;72.79
59043;BME280;44826;51.596;5.624;2023-03-19T12:09:40;101323.53;;;13.54;72.31
59043;BME280;44826;51.596;5.624;2023-03-19T12:12:17;101331.03;;;13.66;70.25
59043;BME280;44826;51.596;5.624;2023-03-19T12:15:12;101329.41;;;13.62;71.53
59043;BME280;44826;51.596;5.624;2023-03-19T12:29:05;101330.75;;;13.45;71.31
59043;BME280;44826;51.596;5.624;2023-03-19T12:31:58;101327.13;;;13.49;70.73
59043;BME280;44826;51.596;5.624;2023-03-19T12:34:49;101339.13;;;13.57;71.25
59043;BME280;44826;51.596;5.624;2023-03-19T12:37:23;101332.00;;;13.62;70.51
59043;BME280;44826;51.596;5.624;2023-03-19T12:42:47;101331.56;;;13.76;70.47
59043;BME280;44826;51.596;5.624;2023-03-19T12:45:22;101329.41;;;13.89;69.85
59043;BME280;44826;51.596;5.624;2023-03-19T12:47:50;101334.16;;;14.04;68.92
59043;BME280;44826;51.596;5.624;2023-03-19T12:50:17;101338.88;;;14.20;68.97
59043;BME280;44826;51.596;5.624;2023-03-19T12:52:48;101330.38;;;14.40;67.78
59043;BME280;44826;51.596;5.624;2023-03-19T12:55:18;101335.13;;;14.54;66.95
59043;BME280;44826;51.596;5.624;2023-03-19T12:57:55;101331.91;;;14.72;67.97
59043;BME280;44826;51.596;5.624;2023-03-19T13:00:30;101338.09;;;14.95;66.52
59043;BME280;44826;51.596;5.624;2023-03-19T13:03:16;101334.56;;;14.96;66.59
59043;BME280;44826;51.596;5.624;2023-03-19T13:05:54;101337.00;;;15.01;66.61
59043;BME280;44826;51.596;5.624;2023-03-19T13:08:40;101336.03;;;15.03;65.84
59043;BME280;44826;51.596;5.624;2023-03-19T13:11:12;101340.53;;;15.00;64.74
59043;BME280;44826;51.596;5.624;2023-03-19T13:13:41;101339.72;;;14.99;63.88
59043;BME280;44826;51.596;5.624;2023-03-19T13:19:40;101345.38;;;14.87;66.31
59043;BME280;44826;51.596;5.624;2023-03-19T13:22:29;101350.19;;;14.74;66.80
59043;BME280;44826;51.596;5.624;2023-03-19T13:24:58;101344.78;;;14.52;65.00
59043;BME280;44826;51.596;5.624;2023-03-19T13:27:32;101347.00;;;14.39;67.72
59043;BME280;44826;51.596;5.624;2023-03-19T13:32:49;101352.19;;;14.14;67.49
59043;BME280;44826;51.596;5.624;2023-03-19T13:35:36;101365.56;;;14.04;68.86
59043;BME280;44826;51.596;5.624;2023-03-19T13:38:12;101361.38;;;13.99;67.72
59043;BME280;44826;51.596;5.624;2023-03-19T13:40:54;101360.63;;;13.95;69.32
59043;BME280;44826;51.596;5.624;2023-03-19T13:45:50;101362.00;;;14.07;69.42
59043;BME280;44826;51.596;5.624;2023-03-19T13:53:38;101356.91;;;14.29;67.64
59043;BME280;44826;51.596;5.624;2023-03-19T13:56:08;101360.13;;;14.37;67.61
59043;BME280;44826;51.596;5.624;2023-03-19T13:58:54;101359.72;;;14.50;67.81
59043;BME280;44826;51.596;5.624;2023-03-19T14:01:39;101363.84;;;14.57;69.21
59043;BME280;44826;51.596;5.624;2023-03-19T14:04:33;101364.47;;;14.64;69.04
59043;BME280;44826;51.596;5.624;2023-03-19T14:07:17;101376.31;;;14.76;66.97
59043;BME280;44826;51.596;5.624;2023-03-19T14:12:30;101373.59;;;14.79;67.49